Time;durP1;ratioP1;P1;durP2;ratioP2;P2;SDS_P1;SDS_P2;PMS_P1;PMS_P2;Temp;Humidity;BMP_temperature;BMP_pressure;BME280_temperature;BME280_humidity;BME280_pressure;Samples;Min_cycle;Max_cycle;Signal;HPM_P1;HPM_P2
2022/09/28 00:02:06;;;;;;;2.10;1.90;;;10.60;99.90;;;;;;5000863;28;20189;-88
2022/09/28 00:04:32;;;;;;;1.80;1.70;;;10.60;99.90;;;;;;4988429;28;20581;-89
2022/09/28 00:06:58;;;;;;;6.60;2.07;;;10.40;99.90;;;;;;5004134;28;20571;-88
2022/09/28 00:09:25;;;;;;;2.43;1.87;;;10.50;99.90;;;;;;4992324;28;20204;-89
2022/09/28 00:11:52;;;;;;;2.63;1.87;;;10.60;99.90;;;;;;5007136;28;20190;-88
2022/09/28 00:14:19;;;;;;;2.10;1.80;;;10.50;99.90;;;;;;4995524;28;20203;-87
2022/09/28 00:16:44;;;;;;;2.67;1.90;;;10.50;99.90;;;;;;4987025;28;20274;-88
2022/09/28 00:19:12;;;;;;;1.80;1.70;;;10.50;99.90;;;;;;4998786;28;20231;-88
2022/09/28 00:21:40;;;;;;;2.83;1.90;;;10.40;99.90;;;;;;4999850;28;20187;-87
2022/09/28 00:24:13;;;;;;;4.43;1.97;;;10.40;99.90;;;;;;5002186;28;20202;-88
2022/09/28 00:26:50;;;;;;;2.47;1.70;;;10.40;99.90;;;;;;5004635;28;20189;-87
2022/09/28 00:29:21;;;;;;;3.60;2.07;;;10.40;99.90;;;;;;5011707;28;20202;-90
2022/09/28 00:31:47;;;;;;;3.43;1.70;;;10.40;99.90;;;;;;5010656;28;20190;-88
2022/09/28 00:34:14;;;;;;;4.83;1.93;;;10.40;99.90;;;;;;5012228;28;20221;-87
2022/09/28 00:36:44;;;;;;;3.40;1.87;;;10.50;99.90;;;;;;4995979;28;20275;-87
2022/09/28 00:39:11;;;;;;;3.07;2.03;;;10.40;99.90;;;;;;5000066;28;20303;-86
2022/09/28 00:41:37;;;;;;;2.73;2.00;;;10.40;99.90;;;;;;5003148;28;20289;-87
2022/09/28 00:44:21;;;;;;;3.07;2.00;;;10.30;99.90;;;;;;4990091;28;20208;-87
2022/09/28 00:47:10;;;;;;;2.77;2.03;;;10.40;99.90;;;;;;4985434;28;20571;-89
2022/09/28 00:49:47;;;;;;;4.20;2.00;;;10.50;99.90;;;;;;4994620;28;20241;-87
2022/09/28 00:52:36;;;;;;;2.93;2.10;;;10.50;99.90;;;;;;4997828;28;20825;-87
2022/09/28 00:55:07;;;;;;;5.83;2.37;;;10.40;99.90;;;;;;4992273;28;20213;-88
2022/09/28 00:57:34;;;;;;;2.70;2.23;;;10.40;99.90;;;;;;5005539;28;20225;-87
2022/09/28 01:00:01;;;;;;;5.00;2.23;;;10.40;99.90;;;;;;4999836;28;20225;-87
2022/09/28 01:02:26;;;;;;;2.17;1.97;;;10.50;99.90;;;;;;4996435;28;20194;-88
2022/09/28 01:04:53;;;;;;;3.67;2.10;;;10.50;99.90;;;;;;4996974;28;20201;-88
2022/09/28 01:07:20;;;;;;;4.93;2.27;;;10.50;99.90;;;;;;4979165;28;20222;-87
2022/09/28 01:09:47;;;;;;;2.23;2.00;;;10.50;99.90;;;;;;4992950;28;20229;-88
2022/09/28 01:12:12;;;;;;;2.63;1.90;;;10.50;99.90;;;;;;4998193;28;20195;-88
2022/09/28 01:14:40;;;;;;;3.73;1.90;;;10.50;99.90;;;;;;4996267;28;20284;-88
2022/09/28 01:17:18;;;;;;;2.23;2.03;;;10.60;99.90;;;;;;5003385;28;20261;-88
2022/09/28 01:19:54;;;;;;;4.10;2.20;;;10.70;99.90;;;;;;4997346;28;20213;-87
2022/09/28 01:22:35;;;;;;;3.73;2.70;;;10.70;99.90;;;;;;5006401;28;20196;-87
2022/09/28 01:25:16;;;;;;;3.70;2.43;;;10.70;99.90;;;;;;4989441;28;20217;-88
2022/09/28 01:27:48;;;;;;;3.40;2.33;;;10.60;99.90;;;;;;4994795;28;20265;-88
2022/09/28 01:30:17;;;;;;;3.30;2.47;;;10.70;99.90;;;;;;4992289;28;20203;-88
2022/09/28 01:33:12;;;;;;;4.47;2.80;;;10.70;99.90;;;;;;5000942;28;20575;-88
2022/09/28 01:35:49;;;;;;;2.47;2.27;;;10.70;99.90;;;;;;4994999;28;20265;-87
2022/09/28 01:38:29;;;;;;;6.93;2.33;;;10.80;99.90;;;;;;4998783;28;21245;-88
2022/09/28 01:40:57;;;;;;;6.10;2.73;;;10.80;99.90;;;;;;5000572;28;20790;-87
2022/09/28 01:43:37;;;;;;;3.23;2.33;;;10.70;99.90;;;;;;4995465;28;20194;-88
2022/09/28 01:46:17;;;;;;;5.93;2.83;;;10.80;99.90;;;;;;4996921;28;20309;-88
2022/09/28 01:48:49;;;;;;;4.67;2.37;;;10.70;99.90;;;;;;4999017;28;20221;-88
2022/09/28 01:51:34;;;;;;;5.80;2.70;;;10.70;99.90;;;;;;5007213;28;20190;-88
2022/09/28 01:54:08;;;;;;;5.20;2.57;;;10.70;99.90;;;;;;5007621;28;20208;-88
2022/09/28 01:56:39;;;;;;;5.53;3.00;;;10.70;99.90;;;;;;5000495;28;20182;-88
2022/09/28 01:59:32;;;;;;;6.13;3.20;;;10.70;99.90;;;;;;5002841;28;20252;-87
2022/09/28 02:02:17;;;;;;;6.17;3.07;;;10.70;99.90;;;;;;4992611;28;20203;-88
2022/09/28 02:05:10;;;;;;;5.70;2.73;;;10.70;99.90;;;;;;5001820;28;20854;-88
2022/09/28 02:07:38;;;;;;;3.87;2.43;;;10.80;99.90;;;;;;4998860;28;20266;-88
2022/09/28 02:10:32;;;;;;;3.90;2.00;;;10.80;99.90;;;;;;4997825;28;20216;-88
2022/09/28 02:13:07;;;;;;;3.90;1.60;;;10.70;99.90;;;;;;4995364;28;20206;-88
2022/09/28 02:15:41;;;;;;;1.47;1.37;;;10.80;99.90;;;;;;5005267;28;20185;-89
2022/09/28 02:18:08;;;;;;;1.50;1.40;;;10.70;99.90;;;;;;4990318;28;20218;-88
2022/09/28 02:20:37;;;;;;;1.60;1.40;;;10.70;99.90;;;;;;4995740;28;20203;-89
2022/09/28 02:23:03;;;;;;;1.40;1.30;;;10.70;99.90;;;;;;4988306;28;20203;-89
2022/09/28 02:25:34;;;;;;;1.90;1.40;;;10.70;99.90;;;;;;5001637;28;20270;-89
2022/09/28 02:28:03;;;;;;;1.63;1.50;;;10.80;99.90;;;;;;5004996;28;20285;-89
2022/09/28 02:30:30;;;;;;;1.70;1.60;;;10.80;99.90;;;;;;5000856;28;20203;-89
2022/09/28 02:33:04;;;;;;;1.67;1.57;;;10.90;99.90;;;;;;5009624;28;20360;-89
2022/09/28 02:35:30;;;;;;;1.20;1.20;;;10.90;99.90;;;;;;4997504;28;20188;-90
2022/09/28 02:37:55;;;;;;;2.17;1.30;;;10.80;99.90;;;;;;4996578;28;20200;-88
2022/09/28 02:40:25;;;;;;;2.07;1.30;;;10.80;99.90;;;;;;5005661;28;20242;-89
2022/09/28 02:43:15;;;;;;;1.40;1.30;;;10.80;99.90;;;;;;5000541;28;20220;-88
2022/09/28 02:45:41;;;;;;;2.27;1.50;;;10.70;99.90;;;;;;5005181;28;20189;-89
2022/09/28 02:48:23;;;;;;;2.40;1.50;;;10.60;99.90;;;;;;5003872;28;20182;-89
2022/09/28 02:51:03;;;;;;;1.60;1.50;;;10.60;99.90;;;;;;5010481;28;20259;-89
2022/09/28 02:53:53;;;;;;;1.50;1.40;;;10.60;99.90;;;;;;4983465;28;20213;-89
2022/09/28 02:56:30;;;;;;;1.47;1.37;;;10.60;99.90;;;;;;4997215;28;20208;-89
2022/09/28 02:59:07;;;;;;;1.50;1.40;;;10.70;99.90;;;;;;4988411;28;20750;-89
2022/09/28 03:01:51;;;;;;;2.77;1.70;;;10.70;99.90;;;;;;5000085;28;20189;-89
2022/09/28 03:04:35;;;;;;;3.33;1.60;;;10.70;99.90;;;;;;4997865;28;20200;-88
2022/09/28 03:07:12;;;;;;;1.20;1.20;;;10.70;99.90;;;;;;5004722;28;20743;-88
2022/09/28 03:09:50;;;;;;;1.70;1.57;;;10.70;99.90;;;;;;5004972;28;20215;-88
2022/09/28 03:12:19;;;;;;;1.70;1.60;;;10.60;99.90;;;;;;4992544;28;20691;-88
2022/09/28 03:14:45;;;;;;;1.83;1.67;;;10.60;99.90;;;;;;4990898;28;20211;-88
2022/09/28 03:17:11;;;;;;;2.07;1.70;;;10.60;99.90;;;;;;5009103;28;20609;-88
2022/09/28 03:19:37;;;;;;;1.60;1.50;;;10.60;99.90;;;;;;4999915;28;20203;-88
2022/09/28 03:22:04;;;;;;;2.23;1.53;;;10.60;99.90;;;;;;5004771;28;20195;-89
2022/09/28 03:24:30;;;;;;;2.50;1.80;;;10.40;99.90;;;;;;5006912;28;20192;-88
2022/09/28 03:26:55;;;;;;;1.67;1.57;;;10.40;99.90;;;;;;5011685;28;20208;-89
2022/09/28 03:29:21;;;;;;;2.73;1.60;;;10.50;99.90;;;;;;5002406;28;20709;-89
2022/09/28 03:31:47;;;;;;;2.23;1.70;;;10.60;99.90;;;;;;4986811;28;20224;-88
2022/09/28 03:34:13;;;;;;;1.90;1.67;;;10.60;99.90;;;;;;5001276;28;20218;-88
2022/09/28 03:36:39;;;;;;;3.57;1.63;;;10.50;99.90;;;;;;4993833;28;20650;-88
2022/09/28 03:39:04;;;;;;;1.90;1.60;;;10.50;99.90;;;;;;5006827;28;20226;-88
2022/09/28 03:41:30;;;;;;;2.43;1.77;;;10.50;99.90;;;;;;5007970;28;20704;-88
2022/09/28 03:43:56;;;;;;;4.37;1.70;;;10.60;99.90;;;;;;5000609;28;20739;-88
2022/09/28 03:46:21;;;;;;;1.70;1.60;;;10.50;99.90;;;;;;5008708;28;20200;-88
2022/09/28 03:48:47;;;;;;;4.77;1.70;;;10.50;99.90;;;;;;4999478;28;20212;-89
2022/09/28 03:51:13;;;;;;;2.90;2.07;;;10.50;99.90;;;;;;4991111;28;20189;-88
2022/09/28 03:53:39;;;;;;;2.07;1.80;;;10.40;99.90;;;;;;4995988;28;20231;-89
2022/09/28 03:56:08;;;;;;;2.17;1.57;;;10.50;99.90;;;;;;5004604;28;20198;-88
2022/09/28 03:58:33;;;;;;;2.10;1.90;;;10.50;99.90;;;;;;5002321;28;20656;-89
2022/09/28 04:01:04;;;;;;;3.17;1.70;;;10.50;99.90;;;;;;5002283;28;20208;-89
2022/09/28 04:03:30;;;;;;;1.70;1.60;;;10.50;99.90;;;;;;5001729;28;20223;-88
2022/09/28 04:05:56;;;;;;;1.90;1.80;;;10.50;99.90;;;;;;4980212;28;20654;-88
2022/09/28 04:08:22;;;;;;;2.07;1.50;;;10.50;99.90;;;;;;4979974;28;20206;-88
2022/09/28 04:10:48;;;;;;;2.90;1.80;;;10.50;99.90;;;;;;5011242;28;20234;-88
2022/09/28 04:13:13;;;;;;;2.60;1.90;;;10.70;99.90;;;;;;5017852;28;20220;-88
2022/09/28 04:15:39;;;;;;;2.43;1.90;;;10.70;99.90;;;;;;5005148;28;20264;-89
2022/09/28 04:18:10;;;;;;;3.07;1.70;;;10.70;99.90;;;;;;5010478;28;20532;-88
2022/09/28 04:20:35;;;;;;;1.90;1.80;;;10.60;99.90;;;;;;5005047;28;20233;-89
2022/09/28 04:23:01;;;;;;;2.07;1.57;;;10.60;99.90;;;;;;5000621;28;20737;-88
2022/09/28 04:25:27;;;;;;;2.07;1.83;;;10.60;99.90;;;;;;4992449;28;20922;-88
2022/09/28 04:30:37;;;;;;;4.70;1.80;;;10.70;99.90;;;;;;4989127;28;20735;-88
2022/09/28 04:33:03;;;;;;;2.93;2.40;;;10.70;99.90;;;;;;5002344;28;20228;-88
2022/09/28 04:35:28;;;;;;;2.17;2.00;;;10.60;99.90;;;;;;5001327;28;20259;-88
2022/09/28 04:37:54;;;;;;;3.33;2.10;;;10.80;99.90;;;;;;5006257;28;20185;-89
2022/09/28 04:40:19;;;;;;;1.87;1.77;;;10.80;99.90;;;;;;4993286;28;20214;-89
2022/09/28 04:42:53;;;;;;;2.20;2.00;;;10.90;99.90;;;;;;4990271;28;20605;-88
2022/09/28 04:45:19;;;;;;;2.13;1.93;;;11.00;99.90;;;;;;4988436;28;20568;-88
2022/09/28 04:47:45;;;;;;;2.67;2.00;;;11.00;99.90;;;;;;4998439;28;20200;-89
2022/09/28 04:50:10;;;;;;;3.00;1.60;;;11.20;99.90;;;;;;5009101;28;20276;-88
2022/09/28 04:52:37;;;;;;;4.80;3.27;;;11.10;99.90;;;;;;5006572;28;20190;-88
2022/09/28 04:55:03;;;;;;;3.10;2.80;;;10.90;99.90;;;;;;5003099;28;20238;-88
2022/09/28 04:57:29;;;;;;;2.77;2.57;;;10.90;99.90;;;;;;4988194;28;20198;-88
2022/09/28 04:59:55;;;;;;;3.27;2.77;;;10.80;99.90;;;;;;4995473;28;20232;-88
2022/09/28 05:02:20;;;;;;;3.53;2.77;;;10.80;99.90;;;;;;4993576;28;20190;-88
2022/09/28 05:04:46;;;;;;;2.93;2.30;;;10.60;99.90;;;;;;4998995;28;20190;-88
2022/09/28 05:07:12;;;;;;;2.83;2.27;;;10.60;99.90;;;;;;5004833;28;20304;-88
2022/09/28 05:09:38;;;;;;;2.40;2.20;;;10.60;99.90;;;;;;4994292;28;20219;-88
2022/09/28 05:12:03;;;;;;;2.40;2.20;;;10.80;99.90;;;;;;5004220;28;20198;-88
2022/09/28 05:14:29;;;;;;;2.87;2.27;;;10.80;99.90;;;;;;4998696;28;20710;-88
2022/09/28 05:16:54;;;;;;;4.00;2.57;;;10.80;99.90;;;;;;4970616;28;20202;-88
2022/09/28 05:19:20;;;;;;;2.30;2.10;;;10.70;99.90;;;;;;4987588;28;20205;-88
2022/09/28 05:21:47;;;;;;;2.60;2.40;;;10.50;99.90;;;;;;4989982;28;20261;-87
2022/09/28 05:24:13;;;;;;;2.30;2.10;;;10.40;99.90;;;;;;4998906;28;20202;-89
2022/09/28 05:26:39;;;;;;;2.97;2.10;;;10.40;99.90;;;;;;4999706;28;20732;-87
2022/09/28 05:29:04;;;;;;;4.40;2.27;;;10.40;99.90;;;;;;4982922;28;20932;-87
2022/09/28 05:31:31;;;;;;;2.43;2.00;;;10.40;99.90;;;;;;5006713;28;20209;-87
2022/09/28 05:33:57;;;;;;;4.70;2.23;;;10.40;99.90;;;;;;5001552;28;20244;-87
2022/09/28 05:36:25;;;;;;;6.77;2.10;;;10.40;99.90;;;;;;4999253;28;20185;-87
2022/09/28 05:38:51;;;;;;;3.57;2.10;;;10.50;99.90;;;;;;4999033;28;20203;-90
2022/09/28 05:41:17;;;;;;;3.43;2.30;;;10.50;99.90;;;;;;4999587;28;20196;-87
2022/09/28 05:43:44;;;;;;;4.80;1.97;;;10.50;99.90;;;;;;4997001;28;20191;-88
2022/09/28 05:46:10;;;;;;;4.60;2.30;;;10.60;99.90;;;;;;4998186;28;20194;-88
2022/09/28 05:48:36;;;;;;;6.37;2.47;;;10.50;99.90;;;;;;5005211;28;20561;-88
2022/09/28 05:51:01;;;;;;;4.37;2.30;;;10.50;99.90;;;;;;4996681;28;20278;-89
2022/09/28 05:53:27;;;;;;;5.60;2.23;;;10.60;99.90;;;;;;5001753;28;20259;-88
2022/09/28 05:55:57;;;;;;;3.63;2.30;;;10.60;99.90;;;;;;4999207;28;20283;-89
2022/09/28 05:58:22;;;;;;;4.10;2.40;;;10.40;99.90;;;;;;5000672;28;20225;-89
2022/09/28 06:00:53;;;;;;;3.20;2.43;;;10.40;99.90;;;;;;4995764;28;20724;-88
2022/09/28 06:03:19;;;;;;;3.83;2.43;;;10.40;99.90;;;;;;4995091;28;20187;-88
2022/09/28 06:05:46;;;;;;;3.83;2.27;;;10.50;99.90;;;;;;5008063;28;20201;-88
2022/09/28 06:08:12;;;;;;;5.00;2.13;;;10.50;99.90;;;;;;5000134;28;20212;-88
2022/09/28 06:10:38;;;;;;;2.60;2.40;;;10.50;99.90;;;;;;4993793;28;20239;-89
2022/09/28 06:13:09;;;;;;;3.90;2.70;;;10.40;99.90;;;;;;5004387;28;20204;-88
2022/09/28 06:15:35;;;;;;;5.27;2.37;;;10.60;99.90;;;;;;5023057;28;20175;-89
2022/09/28 06:18:04;;;;;;;3.73;2.50;;;10.70;99.90;;;;;;5017959;28;20187;-89
2022/09/28 06:20:33;;;;;;;5.63;2.77;;;10.70;99.90;;;;;;5018679;28;20213;-88
2022/09/28 06:22:59;;;;;;;3.20;2.50;;;10.60;99.90;;;;;;5014299;28;20681;-88
2022/09/28 06:25:26;;;;;;;4.03;2.60;;;10.60;99.90;;;;;;5002564;28;20192;-89
2022/09/28 06:28:03;;;;;;;3.93;2.30;;;10.70;99.90;;;;;;4998636;28;20260;-88
2022/09/28 06:30:32;;;;;;;4.50;2.40;;;10.70;99.90;;;;;;4996838;28;20203;-88
2022/09/28 06:32:59;;;;;;;3.37;2.80;;;10.70;99.90;;;;;;4994279;28;20210;-88
2022/09/28 06:35:27;;;;;;;4.00;2.27;;;10.80;99.90;;;;;;5002674;28;20190;-88
2022/09/28 06:37:53;;;;;;;3.53;2.70;;;10.70;99.90;;;;;;5005048;28;20192;-88
2022/09/28 06:40:20;;;;;;;3.80;2.40;;;10.80;99.90;;;;;;5005919;28;20212;-88
2022/09/28 06:43:00;;;;;;;6.17;2.80;;;10.80;99.90;;;;;;4994753;28;20200;-89
2022/09/28 06:45:27;;;;;;;3.17;2.60;;;10.80;99.90;;;;;;5000080;28;20267;-88
2022/09/28 06:47:56;;;;;;;4.00;3.00;;;10.80;99.90;;;;;;5002418;28;20191;-88
2022/09/28 06:50:31;;;;;;;3.87;2.97;;;10.80;99.90;;;;;;5010283;28;20582;-88
2022/09/28 06:52:57;;;;;;;3.27;2.47;;;10.80;99.90;;;;;;5001273;28;20625;-87
2022/09/28 06:55:23;;;;;;;3.63;2.80;;;10.80;99.90;;;;;;4999143;28;20571;-87
2022/09/28 06:58:03;;;;;;;4.00;2.83;;;10.80;99.90;;;;;;5007375;28;20188;-88
2022/09/28 07:00:32;;;;;;;3.97;2.77;;;10.90;99.90;;;;;;5008371;28;20211;-89
2022/09/28 07:03:00;;;;;;;5.40;3.10;;;11.00;99.90;;;;;;4986671;28;20557;-88
2022/09/28 07:05:27;;;;;;;3.33;2.17;;;10.90;99.90;;;;;;4998030;28;20196;-89
2022/09/28 07:07:56;;;;;;;5.53;3.57;;;11.00;99.90;;;;;;5002293;28;20196;-89
2022/09/28 07:10:29;;;;;;;6.73;3.20;;;11.10;99.90;;;;;;5000410;28;20219;-88
2022/09/28 07:12:56;;;;;;;4.83;4.43;;;11.00;99.90;;;;;;5009052;28;20189;-89
2022/09/28 07:15:23;;;;;;;7.77;6.50;;;11.00;99.90;;;;;;5007226;28;20207;-88
2022/09/28 07:17:48;;;;;;;7.07;4.17;;;11.20;99.90;;;;;;5011328;28;20186;-88
2022/09/28 07:20:15;;;;;;;5.87;5.17;;;11.20;99.90;;;;;;5005040;28;20217;-88
2022/09/28 07:22:43;;;;;;;4.27;3.50;;;11.20;99.90;;;;;;5006690;28;20193;-88
2022/09/28 07:25:09;;;;;;;9.50;6.37;;;11.30;99.90;;;;;;5004305;28;20215;-88
2022/09/28 07:27:38;;;;;;;6.77;3.87;;;11.40;99.90;;;;;;5002899;28;20187;-88
2022/09/28 07:30:05;;;;;;;23.17;20.67;;;11.50;99.90;;;;;;5009185;28;20292;-89
2022/09/28 07:32:33;;;;;;;9.07;6.37;;;11.60;99.90;;;;;;4999473;28;20268;-89
2022/09/28 07:35:00;;;;;;;7.73;5.37;;;11.60;99.90;;;;;;5000459;28;20274;-89
2022/09/28 07:37:26;;;;;;;5.63;3.80;;;11.60;99.90;;;;;;4999290;28;20198;-88
2022/09/28 07:42:37;;;;;;;4.80;3.10;;;11.50;99.90;;;;;;4994882;28;20254;-88
2022/09/28 07:45:03;;;;;;;5.30;3.70;;;11.50;99.90;;;;;;5004976;28;20189;-88
2022/09/28 07:47:29;;;;;;;7.07;4.20;;;11.60;99.90;;;;;;5006115;28;20202;-88
2022/09/28 07:49:57;;;;;;;5.33;3.90;;;11.50;99.90;;;;;;4997191;28;20280;-89
2022/09/28 07:52:25;;;;;;;7.73;3.90;;;11.30;99.90;;;;;;5017337;28;20189;-89
2022/09/28 07:54:55;;;;;;;6.33;3.90;;;11.30;99.90;;;;;;5023129;28;20327;-89
2022/09/28 07:57:21;;;;;;;4.40;3.50;;;11.20;99.90;;;;;;5005955;28;20264;-89
2022/09/28 07:59:48;;;;;;;7.33;4.07;;;11.20;99.90;;;;;;5000773;28;20817;-89
2022/09/28 08:02:19;;;;;;;4.73;4.07;;;11.20;99.90;;;;;;4999117;28;20196;-89
2022/09/28 08:04:48;;;;;;;5.17;3.83;;;11.30;99.90;;;;;;5008592;28;20209;-89
2022/09/28 08:07:15;;;;;;;5.03;3.87;;;11.40;99.90;;;;;;5002439;28;20198;-88
2022/09/28 08:09:41;;;;;;;5.27;3.90;;;11.50;99.90;;;;;;4997332;28;20240;-88
2022/09/28 08:12:07;;;;;;;5.57;3.80;;;11.70;99.90;;;;;;5005350;28;20197;-88
2022/09/28 08:14:33;;;;;;;5.80;4.27;;;11.70;99.90;;;;;;4988955;28;20224;-87
2022/09/28 08:17:00;;;;;;;7.00;4.43;;;11.70;99.90;;;;;;4999678;28;20261;-89
2022/09/28 08:21:43;;;;;;;5.93;4.10;;;11.50;99.90;;;;;;4984328;28;20284;-89
2022/09/28 08:22:12;;;;;;;7.80;4.83;;;11.50;99.90;;;;;;5009169;28;20233;-88
2022/09/28 08:24:38;;;;;;;6.63;3.83;;;11.70;99.90;;;;;;5000622;28;20193;-89
2022/09/28 08:27:04;;;;;;;6.27;4.30;;;11.80;99.90;;;;;;5000449;28;20590;-87
2022/09/28 08:29:30;;;;;;;6.00;4.27;;;11.80;99.90;;;;;;4998587;28;20229;-88
2022/09/28 08:31:58;;;;;;;4.40;3.80;;;11.90;99.90;;;;;;4979200;28;20275;-89
2022/09/28 08:34:26;;;;;;;6.47;4.30;;;11.90;99.90;;;;;;4992106;28;20220;-88
2022/09/28 08:36:52;;;;;;;6.97;3.60;;;11.80;99.90;;;;;;4994642;28;20217;-88
2022/09/28 08:39:18;;;;;;;9.33;4.30;;;11.90;99.90;;;;;;4996131;28;20457;-88
2022/09/28 08:42:04;;;;;;;5.13;4.37;;;11.90;99.90;;;;;;4995724;28;20224;-88
2022/09/28 08:44:41;;;;;;;5.57;3.87;;;11.90;99.90;;;;;;5006256;28;20194;-88
2022/09/28 08:50:05;;;;;;;5.40;3.57;;;11.90;99.90;;;;;;4989206;28;20215;-88
2022/09/28 08:52:36;;;;;;;6.07;3.90;;;11.90;99.90;;;;;;4986529;28;20193;-89
2022/09/28 08:55:18;;;;;;;7.97;4.43;;;12.00;99.90;;;;;;4996788;28;20221;-87
2022/09/28 08:57:44;;;;;;;11.33;7.57;;;12.10;99.90;;;;;;4993594;28;20203;-88
2022/09/28 09:00:19;;;;;;;6.70;4.23;;;12.30;99.90;;;;;;4996488;28;20221;-88
2022/09/28 09:02:46;;;;;;;5.97;3.90;;;12.20;99.90;;;;;;4996347;28;20187;-88
2022/09/28 09:05:17;;;;;;;6.60;4.57;;;12.00;99.90;;;;;;5005467;28;20247;-88
2022/09/28 09:08:02;;;;;;;11.27;6.13;;;12.10;99.90;;;;;;4985978;28;20268;-88
2022/09/28 09:10:49;;;;;;;5.10;4.50;;;12.20;99.90;;;;;;4986143;28;20216;-88
2022/09/28 09:13:30;;;;;;;25.20;18.77;;;12.20;99.90;;;;;;5002170;28;20195;-88
2022/09/28 09:16:14;;;;;;;11.13;7.93;;;12.40;99.90;;;;;;4991929;28;20284;-89
2022/09/28 09:19:15;;;;;;;6.60;4.10;;;12.40;99.90;;;;;;5000562;28;20226;-88
2022/09/28 09:21:44;;;;;;;5.27;4.07;;;12.40;99.90;;;;;;4995318;28;20192;-88
2022/09/28 09:24:28;;;;;;;9.57;5.17;;;12.70;99.90;;;;;;4983057;28;20203;-88
2022/09/28 09:27:05;;;;;;;4.40;3.50;;;12.60;99.90;;;;;;4993704;28;20186;-88
2022/09/28 09:29:49;;;;;;;5.80;4.00;;;12.80;99.50;;;;;;4996149;28;20209;-88
2022/09/28 09:32:52;;;;;;;6.03;3.90;;;12.80;99.90;;;;;;4995266;28;20214;-88
2022/09/28 09:35:17;;;;;;;4.80;3.70;;;12.80;99.90;;;;;;5002326;28;20287;-88
2022/09/28 09:38:16;;;;;;;8.50;4.43;;;12.60;99.90;;;;;;5006313;28;20198;-88
2022/09/28 09:41:07;;;;;;;6.57;4.30;;;12.60;99.90;;;;;;4991757;28;20206;-88
2022/09/28 09:43:57;;;;;;;6.93;4.50;;;12.70;99.90;;;;;;5000425;28;20205;-89
2022/09/28 09:46:55;;;;;;;5.33;3.60;;;12.80;99.90;;;;;;5003866;28;20843;-88
2022/09/28 09:49:23;;;;;;;6.83;3.97;;;12.70;99.90;;;;;;4996122;28;20237;-89
2022/09/28 09:51:51;;;;;;;5.33;4.13;;;12.60;98.80;;;;;;5000364;28;20201;-89
2022/09/28 09:54:34;;;;;;;6.50;3.83;;;12.60;99.90;;;;;;4997401;28;20235;-89
2022/09/28 09:57:30;;;;;;;4.37;3.97;;;12.60;99.60;;;;;;4999329;28;20230;-88
2022/09/28 10:00:00;;;;;;;6.30;4.00;;;12.70;99.90;;;;;;4998797;28;20221;-88
2022/09/28 10:02:33;;;;;;;5.33;3.70;;;12.40;99.90;;;;;;5000288;28;20186;-89
2022/09/28 10:05:05;;;;;;;6.47;3.97;;;12.40;99.90;;;;;;5002297;28;20207;-88
2022/09/28 10:07:44;;;;;;;8.27;3.80;;;12.40;99.90;;;;;;4994119;28;20240;-89
2022/09/28 10:10:17;;;;;;;6.80;4.20;;;12.10;99.90;;;;;;4998644;28;20217;-88
2022/09/28 10:12:42;;;;;;;5.90;3.67;;;12.20;99.90;;;;;;5008497;28;20196;-88
2022/09/28 10:15:14;;;;;;;7.27;3.80;;;12.20;99.90;;;;;;5009011;28;20698;-88
2022/09/28 10:17:41;;;;;;;5.53;3.53;;;12.50;99.90;;;;;;4998906;28;20186;-88
2022/09/28 10:20:13;;;;;;;6.63;3.90;;;12.70;99.90;;;;;;4990035;28;20234;-89
2022/09/28 10:22:39;;;;;;;6.60;4.30;;;13.00;99.90;;;;;;4991624;28;20186;-89
2022/09/28 10:25:07;;;;;;;6.93;3.83;;;13.00;99.90;;;;;;4992562;28;20210;-87
2022/09/28 10:27:37;;;;;;;4.17;3.40;;;12.80;98.30;;;;;;4996141;28;20221;-88
2022/09/28 10:30:22;;;;;;;7.53;4.00;;;13.20;96.80;;;;;;5012262;28;20300;-88
2022/09/28 10:32:51;;;;;;;6.33;3.77;;;13.30;96.20;;;;;;5009940;28;20208;-89
2022/09/28 10:35:24;;;;;;;4.73;3.30;;;13.40;94.60;;;;;;5002158;28;20692;-88
2022/09/28 10:37:58;;;;;;;5.30;3.73;;;13.50;96.60;;;;;;5001402;28;20217;-88
2022/09/28 10:40:42;;;;;;;4.87;3.90;;;13.70;96.40;;;;;;4993906;28;20220;-89
2022/09/28 10:43:32;;;;;;;5.53;3.77;;;13.70;93.70;;;;;;5001099;28;20194;-88
2022/09/28 10:46:10;;;;;;;7.33;4.07;;;14.10;91.50;;;;;;4996024;28;20741;-89
2022/09/28 10:48:57;;;;;;;5.03;3.00;;;14.30;91.50;;;;;;5007215;28;20699;-89
2022/09/28 10:51:40;;;;;;;4.03;3.13;;;14.70;89.60;;;;;;4997041;28;20186;-88
2022/09/28 10:54:15;;;;;;;4.50;3.17;;;14.70;88.70;;;;;;4997980;28;20208;-88
2022/09/28 10:56:41;;;;;;;5.17;3.33;;;14.60;85.50;;;;;;4998390;28;20277;-89
2022/09/28 10:59:22;;;;;;;5.93;3.20;;;14.40;86.20;;;;;;5007787;28;20208;-84
2022/09/28 11:02:16;;;;;;;5.40;3.23;;;14.40;87.80;;;;;;5012225;28;20329;-85
2022/09/28 11:04:48;;;;;;;8.23;3.50;;;14.40;86.70;;;;;;5003642;28;20672;-85
2022/09/28 11:07:26;;;;;;;6.60;3.40;;;14.70;85.80;;;;;;5008451;28;20248;-85
2022/09/28 11:09:54;;;;;;;4.40;2.93;;;14.70;86.20;;;;;;4999304;28;20590;-88
2022/09/28 11:12:23;;;;;;;5.33;3.00;;;15.00;86.70;;;;;;4995290;28;20191;-89
2022/09/28 11:14:55;;;;;;;3.30;2.93;;;15.40;83.20;;;;;;4997611;28;20296;-89
2022/09/28 11:17:28;;;;;;;3.10;2.70;;;15.20;82.60;;;;;;4996878;28;20528;-88
2022/09/28 11:19:57;;;;;;;5.03;3.10;;;14.90;83.90;;;;;;4975957;28;20233;-89
2022/09/28 11:22:36;;;;;;;7.07;2.90;;;14.90;83.30;;;;;;4991977;28;20186;-89
2022/09/28 11:25:17;;;;;;;6.00;3.33;;;15.10;85.60;;;;;;5006434;28;20209;-88
2022/09/28 11:27:52;;;;;;;7.73;3.10;;;14.90;82.80;;;;;;5000152;28;20240;-89
2022/09/28 11:30:49;;;;;;;4.47;2.90;;;15.10;81.50;;;;;;4993405;28;20222;-89
2022/09/28 11:33:19;;;;;;;3.47;2.90;;;15.40;80.70;;;;;;4999659;28;20205;-89
2022/09/28 11:35:59;;;;;;;6.27;2.70;;;15.90;76.80;;;;;;4997306;28;20240;-91
2022/09/28 11:38:32;;;;;;;3.37;3.07;;;16.20;72.90;;;;;;4998649;28;20220;-90
2022/09/28 11:41:29;;;;;;;6.10;3.27;;;16.10;73.50;;;;;;5001130;28;20188;-91
2022/09/28 11:44:15;;;;;;;3.43;2.77;;;16.00;78.40;;;;;;5005185;28;20203;-90
2022/09/28 11:47:07;;;;;;;5.13;2.90;;;16.30;73.00;;;;;;4996428;28;20198;-90
2022/09/28 11:49:51;;;;;;;4.07;3.10;;;15.90;71.90;;;;;;4992498;28;20214;-90
2022/09/28 11:52:29;;;;;;;3.63;2.77;;;15.50;77.80;;;;;;4998399;28;20722;-90
2022/09/28 11:55:03;;;;;;;3.77;2.97;;;15.50;78.00;;;;;;5000760;28;20207;-91
2022/09/28 11:57:35;;;;;;;4.57;2.73;;;15.80;78.00;;;;;;4989289;28;20689;-90
2022/09/28 12:00:14;;;;;;;4.37;2.97;;;15.90;74.80;;;;;;4990792;28;20256;-92
2022/09/28 12:03:04;;;;;;;5.13;2.90;;;15.50;77.60;;;;;;4997271;28;20216;-90
2022/09/28 12:05:39;;;;;;;4.60;2.90;;;15.40;75.60;;;;;;4995514;28;20221;-89
2022/09/28 12:08:17;;;;;;;3.90;2.70;;;15.10;75.70;;;;;;4997714;28;20251;-90
2022/09/28 12:10:58;;;;;;;4.37;3.03;;;15.10;75.90;;;;;;4998984;28;20219;-91
2022/09/28 12:13:31;;;;;;;4.37;2.73;;;15.50;73.10;;;;;;4991270;28;20210;-88
2022/09/28 12:16:02;;;;;;;4.80;2.90;;;16.00;73.00;;;;;;4993326;28;20218;-90
2022/09/28 12:18:35;;;;;;;5.00;3.00;;;16.10;70.60;;;;;;4989577;28;20180;-90
2022/09/28 12:21:32;;;;;;;4.70;2.67;;;16.30;67.80;;;;;;4999057;28;20206;-90
2022/09/28 12:24:10;;;;;;;4.90;2.70;;;16.50;64.80;;;;;;4982677;28;20218;-92
2022/09/28 12:26:45;;;;;;;2.90;2.60;;;16.40;67.20;;;;;;4992460;28;20194;-89
2022/09/28 12:29:16;;;;;;;4.30;2.40;;;16.60;68.60;;;;;;4992436;28;20216;-89
2022/09/28 12:32:15;;;;;;;6.03;2.60;;;17.20;62.70;;;;;;4994108;28;20208;-89
2022/09/28 12:34:42;;;;;;;4.17;2.50;;;17.40;63.80;;;;;;5000062;28;20729;-89
2022/09/28 12:37:17;;;;;;;4.30;2.50;;;17.30;64.50;;;;;;4997194;28;20190;-90
2022/09/28 12:40:08;;;;;;;3.03;2.40;;;17.50;60.60;;;;;;4990359;28;20694;-90
2022/09/28 12:43:03;;;;;;;3.50;2.90;;;17.60;59.90;;;;;;4994277;28;20221;-90
2022/09/28 12:45:47;;;;;;;2.90;2.45;;;17.60;61.50;;;;;;4990554;28;20219;-90
2022/09/28 12:48:35;;;;;;;3.63;2.40;;;17.70;61.10;;;;;;5000178;28;20188;-90
2022/09/28 12:51:22;;;;;;;4.50;2.50;;;17.80;61.20;;;;;;5008377;28;20184;-90
2022/09/28 12:54:07;;;;;;;5.03;2.40;;;17.20;63.40;;;;;;5010781;28;20267;-90
2022/09/28 12:56:59;;;;;;;3.83;2.40;;;17.20;59.90;;;;;;5019178;28;20178;-90
2022/09/28 12:59:59;;;;;;;4.07;2.67;;;17.40;59.70;;;;;;4997584;28;20203;-90
2022/09/28 13:02:35;;;;;;;3.93;2.50;;;17.80;56.70;;;;;;5003403;28;20189;-90
2022/09/28 13:05:30;;;;;;;3.70;2.20;;;17.30;59.60;;;;;;5004825;28;20204;-90
2022/09/28 13:08:18;;;;;;;4.50;2.37;;;16.90;60.60;;;;;;5002506;28;20194;-90
2022/09/28 13:11:21;;;;;;;3.13;2.10;;;17.60;57.50;;;;;;4998237;28;20226;-89
2022/09/28 13:14:23;;;;;;;4.27;2.30;;;17.40;54.30;;;;;;5009167;28;20297;-89
2022/09/28 13:16:59;;;;;;;2.43;2.20;;;16.90;57.70;;;;;;5002198;28;20181;-90
2022/09/28 13:20:03;;;;;;;2.83;2.20;;;16.50;59.60;;;;;;4993696;28;20219;-89
2022/09/28 13:22:39;;;;;;;3.17;2.40;;;16.10;63.40;;;;;;5004179;28;20185;-90
2022/09/28 13:25:13;;;;;;;2.70;2.20;;;16.20;62.40;;;;;;5005109;28;20181;-90